sensor_id;sensor_type;location;lat;lon;timestamp;P1;durP1;ratioP1;P2;durP2;ratioP2
21274;SDS011;36472;52.170;20.884;2023-02-15T00:01:53;50.88;;;31.10;;
21274;SDS011;36472;52.170;20.884;2023-02-15T00:04:24;53.78;;;31.45;;
21274;SDS011;36472;52.170;20.884;2023-02-15T00:07:14;56.83;;;34.13;;
21274;SDS011;36472;52.170;20.884;2023-02-15T00:09:45;55.55;;;32.40;;
21274;SDS011;36472;52.170;20.884;2023-02-15T00:12:16;51.15;;;31.30;;
21274;SDS011;36472;52.170;20.884;2023-02-15T00:14:45;53.72;;;32.03;;
21274;SDS011;36472;52.170;20.884;2023-02-15T00:17:14;57.75;;;33.17;;
21274;SDS011;36472;52.170;20.884;2023-02-15T00:19:43;50.80;;;32.17;;
21274;SDS011;36472;52.170;20.884;2023-02-15T00:22:12;52.78;;;32.20;;
21274;SDS011;36472;52.170;20.884;2023-02-15T00:24:41;50.17;;;29.95;;
21274;SDS011;36472;52.170;20.884;2023-02-15T00:27:10;50.20;;;31.42;;
21274;SDS011;36472;52.170;20.884;2023-02-15T00:29:40;49.30;;;31.00;;
21274;SDS011;36472;52.170;20.884;2023-02-15T00:32:09;46.30;;;28.23;;
21274;SDS011;36472;52.170;20.884;2023-02-15T00:34:39;47.40;;;29.98;;
21274;SDS011;36472;52.170;20.884;2023-02-15T00:37:09;49.35;;;29.02;;
21274;SDS011;36472;52.170;20.884;2023-02-15T00:39:37;52.22;;;31.17;;
21274;SDS011;36472;52.170;20.884;2023-02-15T00:42:07;50.53;;;28.80;;
21274;SDS011;36472;52.170;20.884;2023-02-15T00:44:35;48.40;;;28.77;;
21274;SDS011;36472;52.170;20.884;2023-02-15T00:47:06;47.97;;;28.35;;
21274;SDS011;36472;52.170;20.884;2023-02-15T00:49:35;42.67;;;27.50;;
21274;SDS011;36472;52.170;20.884;2023-02-15T00:52:04;45.65;;;27.73;;
21274;SDS011;36472;52.170;20.884;2023-02-15T00:54:33;44.83;;;27.80;;
21274;SDS011;36472;52.170;20.884;2023-02-15T00:57:03;46.72;;;28.17;;
21274;SDS011;36472;52.170;20.884;2023-02-15T00:59:32;46.00;;;29.25;;
21274;SDS011;36472;52.170;20.884;2023-02-15T01:02:01;48.25;;;29.35;;
21274;SDS011;36472;52.170;20.884;2023-02-15T01:04:31;43.13;;;28.92;;
21274;SDS011;36472;52.170;20.884;2023-02-15T01:07:00;50.38;;;30.65;;
21274;SDS011;36472;52.170;20.884;2023-02-15T01:09:32;47.65;;;29.17;;
21274;SDS011;36472;52.170;20.884;2023-02-15T01:12:02;46.50;;;30.00;;
21274;SDS011;36472;52.170;20.884;2023-02-15T01:14:31;51.13;;;31.05;;
21274;SDS011;36472;52.170;20.884;2023-02-15T01:17:00;50.15;;;30.85;;
21274;SDS011;36472;52.170;20.884;2023-02-15T01:19:35;46.30;;;28.92;;
21274;SDS011;36472;52.170;20.884;2023-02-15T01:22:06;44.67;;;28.15;;
21274;SDS011;36472;52.170;20.884;2023-02-15T01:24:35;48.42;;;27.10;;
21274;SDS011;36472;52.170;20.884;2023-02-15T01:27:04;43.45;;;28.23;;
21274;SDS011;36472;52.170;20.884;2023-02-15T01:29:33;45.13;;;29.05;;
21274;SDS011;36472;52.170;20.884;2023-02-15T01:32:02;46.35;;;27.73;;
21274;SDS011;36472;52.170;20.884;2023-02-15T01:34:31;48.78;;;29.55;;
21274;SDS011;36472;52.170;20.884;2023-02-15T01:37:02;47.20;;;27.55;;
21274;SDS011;36472;52.170;20.884;2023-02-15T01:39:31;44.80;;;27.63;;
21274;SDS011;36472;52.170;20.884;2023-02-15T01:42:00;44.92;;;27.98;;
21274;SDS011;36472;52.170;20.884;2023-02-15T01:47:21;44.47;;;27.85;;
21274;SDS011;36472;52.170;20.884;2023-02-15T01:49:59;46.88;;;27.90;;
21274;SDS011;36472;52.170;20.884;2023-02-15T01:52:38;44.92;;;27.17;;
21274;SDS011;36472;52.170;20.884;2023-02-15T01:55:17;44.78;;;27.63;;
21274;SDS011;36472;52.170;20.884;2023-02-15T01:57:48;40.10;;;25.95;;
21274;SDS011;36472;52.170;20.884;2023-02-15T02:00:19;42.90;;;26.33;;
21274;SDS011;36472;52.170;20.884;2023-02-15T02:02:50;44.60;;;27.15;;
21274;SDS011;36472;52.170;20.884;2023-02-15T02:05:24;40.92;;;26.63;;
21274;SDS011;36472;52.170;20.884;2023-02-15T02:07:56;43.45;;;26.40;;
21274;SDS011;36472;52.170;20.884;2023-02-15T02:10:30;42.38;;;26.83;;
21274;SDS011;36472;52.170;20.884;2023-02-15T02:13:01;42.55;;;26.33;;
21274;SDS011;36472;52.170;20.884;2023-02-15T02:15:39;46.53;;;26.95;;
21274;SDS011;36472;52.170;20.884;2023-02-15T02:18:22;45.50;;;27.17;;
21274;SDS011;36472;52.170;20.884;2023-02-15T02:21:16;46.67;;;26.33;;
21274;SDS011;36472;52.170;20.884;2023-02-15T02:24:16;44.13;;;26.58;;
21274;SDS011;36472;52.170;20.884;2023-02-15T02:27:19;43.22;;;26.38;;
21274;SDS011;36472;52.170;20.884;2023-02-15T02:33:21;48.05;;;27.15;;
21274;SDS011;36472;52.170;20.884;2023-02-15T02:36:19;44.80;;;28.10;;
21274;SDS011;36472;52.170;20.884;2023-02-15T02:39:00;44.97;;;27.00;;
21274;SDS011;36472;52.170;20.884;2023-02-15T02:41:44;47.03;;;27.25;;
21274;SDS011;36472;52.170;20.884;2023-02-15T02:44:29;44.20;;;26.63;;
21274;SDS011;36472;52.170;20.884;2023-02-15T02:47:12;48.15;;;27.50;;
21274;SDS011;36472;52.170;20.884;2023-02-15T02:49:51;43.63;;;25.27;;
21274;SDS011;36472;52.170;20.884;2023-02-15T02:52:37;44.47;;;26.33;;
21274;SDS011;36472;52.170;20.884;2023-02-15T02:55:10;44.17;;;26.80;;
21274;SDS011;36472;52.170;20.884;2023-02-15T02:57:50;40.88;;;24.38;;
21274;SDS011;36472;52.170;20.884;2023-02-15T03:00:24;42.40;;;25.20;;
21274;SDS011;36472;52.170;20.884;2023-02-15T03:02:58;41.17;;;25.30;;
21274;SDS011;36472;52.170;20.884;2023-02-15T03:05:36;39.90;;;23.95;;
21274;SDS011;36472;52.170;20.884;2023-02-15T03:08:13;44.25;;;25.08;;
21274;SDS011;36472;52.170;20.884;2023-02-15T03:10:49;40.95;;;25.40;;
21274;SDS011;36472;52.170;20.884;2023-02-15T03:13:23;39.95;;;24.63;;
21274;SDS011;36472;52.170;20.884;2023-02-15T03:15:54;47.05;;;25.40;;
21274;SDS011;36472;52.170;20.884;2023-02-15T03:18:43;38.88;;;23.90;;
21274;SDS011;36472;52.170;20.884;2023-02-15T03:21:22;39.20;;;24.52;;
21274;SDS011;36472;52.170;20.884;2023-02-15T03:24:01;40.42;;;23.88;;
21274;SDS011;36472;52.170;20.884;2023-02-15T03:26:37;41.47;;;24.08;;
21274;SDS011;36472;52.170;20.884;2023-02-15T03:29:12;42.03;;;23.85;;
21274;SDS011;36472;52.170;20.884;2023-02-15T03:31:45;39.00;;;23.67;;
21274;SDS011;36472;52.170;20.884;2023-02-15T03:34:22;34.15;;;22.42;;
21274;SDS011;36472;52.170;20.884;2023-02-15T03:36:55;36.55;;;22.58;;
21274;SDS011;36472;52.170;20.884;2023-02-15T03:39:35;35.33;;;22.70;;
21274;SDS011;36472;52.170;20.884;2023-02-15T03:42:14;37.40;;;21.88;;
21274;SDS011;36472;52.170;20.884;2023-02-15T03:44:51;38.40;;;22.80;;
21274;SDS011;36472;52.170;20.884;2023-02-15T03:47:28;42.80;;;23.10;;
21274;SDS011;36472;52.170;20.884;2023-02-15T03:50:03;37.65;;;22.10;;
21274;SDS011;36472;52.170;20.884;2023-02-15T03:52:58;36.22;;;21.52;;
21274;SDS011;36472;52.170;20.884;2023-02-15T03:55:32;35.65;;;22.10;;
21274;SDS011;36472;52.170;20.884;2023-02-15T03:58:03;37.35;;;21.80;;
21274;SDS011;36472;52.170;20.884;2023-02-15T04:00:52;34.35;;;21.25;;
21274;SDS011;36472;52.170;20.884;2023-02-15T04:03:45;30.60;;;19.23;;
21274;SDS011;36472;52.170;20.884;2023-02-15T04:06:22;35.10;;;21.80;;
21274;SDS011;36472;52.170;20.884;2023-02-15T04:08:52;32.30;;;20.75;;
21274;SDS011;36472;52.170;20.884;2023-02-15T04:11:38;31.60;;;19.92;;
21274;SDS011;36472;52.170;20.884;2023-02-15T04:14:07;30.88;;;18.52;;
21274;SDS011;36472;52.170;20.884;2023-02-15T04:16:50;28.15;;;17.92;;
21274;SDS011;36472;52.170;20.884;2023-02-15T04:19:19;28.55;;;18.38;;
21274;SDS011;36472;52.170;20.884;2023-02-15T04:22:06;30.80;;;19.70;;
21274;SDS011;36472;52.170;20.884;2023-02-15T04:24:53;28.80;;;17.63;;
21274;SDS011;36472;52.170;20.884;2023-02-15T04:27:37;23.45;;;15.18;;
21274;SDS011;36472;52.170;20.884;2023-02-15T04:30:08;22.27;;;15.15;;
21274;SDS011;36472;52.170;20.884;2023-02-15T04:32:40;24.40;;;15.93;;
21274;SDS011;36472;52.170;20.884;2023-02-15T04:35:09;25.33;;;16.83;;
21274;SDS011;36472;52.170;20.884;2023-02-15T04:37:39;26.55;;;16.77;;
21274;SDS011;36472;52.170;20.884;2023-02-15T04:40:12;23.88;;;15.05;;
21274;SDS011;36472;52.170;20.884;2023-02-15T04:42:46;25.08;;;15.95;;
21274;SDS011;36472;52.170;20.884;2023-02-15T04:45:16;26.13;;;16.58;;
21274;SDS011;36472;52.170;20.884;2023-02-15T04:47:46;25.27;;;16.60;;
21274;SDS011;36472;52.170;20.884;2023-02-15T04:50:15;24.13;;;15.70;;
21274;SDS011;36472;52.170;20.884;2023-02-15T04:52:44;25.83;;;16.08;;
21274;SDS011;36472;52.170;20.884;2023-02-15T04:55:14;24.83;;;15.57;;
21274;SDS011;36472;52.170;20.884;2023-02-15T04:57:43;28.20;;;15.90;;
21274;SDS011;36472;52.170;20.884;2023-02-15T05:00:14;30.55;;;19.40;;
21274;SDS011;36472;52.170;20.884;2023-02-15T05:02:43;28.13;;;17.65;;
21274;SDS011;36472;52.170;20.884;2023-02-15T05:05:12;27.25;;;16.63;;
21274;SDS011;36472;52.170;20.884;2023-02-15T05:07:42;30.55;;;17.77;;
21274;SDS011;36472;52.170;20.884;2023-02-15T05:10:11;27.38;;;18.00;;
21274;SDS011;36472;52.170;20.884;2023-02-15T05:12:41;23.63;;;16.60;;
21274;SDS011;36472;52.170;20.884;2023-02-15T05:15:10;24.00;;;16.75;;
21274;SDS011;36472;52.170;20.884;2023-02-15T05:17:39;28.67;;;16.63;;
21274;SDS011;36472;52.170;20.884;2023-02-15T05:20:08;23.80;;;16.25;;
21274;SDS011;36472;52.170;20.884;2023-02-15T05:22:38;26.38;;;16.83;;
21274;SDS011;36472;52.170;20.884;2023-02-15T05:25:08;25.42;;;16.63;;
21274;SDS011;36472;52.170;20.884;2023-02-15T05:27:56;30.40;;;17.83;;
21274;SDS011;36472;52.170;20.884;2023-02-15T05:30:42;26.52;;;17.58;;
21274;SDS011;36472;52.170;20.884;2023-02-15T05:33:11;31.45;;;17.70;;
21274;SDS011;36472;52.170;20.884;2023-02-15T05:35:40;28.55;;;17.75;;
21274;SDS011;36472;52.170;20.884;2023-02-15T05:38:09;26.67;;;17.13;;
21274;SDS011;36472;52.170;20.884;2023-02-15T05:40:38;29.90;;;18.13;;
21274;SDS011;36472;52.170;20.884;2023-02-15T05:43:08;28.77;;;17.92;;
21274;SDS011;36472;52.170;20.884;2023-02-15T05:45:37;28.73;;;18.38;;
21274;SDS011;36472;52.170;20.884;2023-02-15T05:48:06;28.75;;;17.92;;
21274;SDS011;36472;52.170;20.884;2023-02-15T05:50:35;25.80;;;17.15;;
21274;SDS011;36472;52.170;20.884;2023-02-15T05:53:04;27.33;;;16.75;;
21274;SDS011;36472;52.170;20.884;2023-02-15T05:55:33;30.02;;;19.92;;
21274;SDS011;36472;52.170;20.884;2023-02-15T05:58:05;26.40;;;16.98;;
21274;SDS011;36472;52.170;20.884;2023-02-15T06:00:35;27.90;;;17.05;;
21274;SDS011;36472;52.170;20.884;2023-02-15T06:03:05;27.17;;;16.75;;
21274;SDS011;36472;52.170;20.884;2023-02-15T06:05:33;26.20;;;16.90;;
21274;SDS011;36472;52.170;20.884;2023-02-15T06:08:03;25.20;;;15.38;;
21274;SDS011;36472;52.170;20.884;2023-02-15T06:10:32;25.40;;;16.60;;
21274;SDS011;36472;52.170;20.884;2023-02-15T06:13:01;27.90;;;17.10;;
21274;SDS011;36472;52.170;20.884;2023-02-15T06:15:29;30.83;;;18.05;;
21274;SDS011;36472;52.170;20.884;2023-02-15T06:18:00;23.50;;;16.48;;
21274;SDS011;36472;52.170;20.884;2023-02-15T06:20:29;27.80;;;17.13;;
21274;SDS011;36472;52.170;20.884;2023-02-15T06:22:58;30.63;;;17.50;;
21274;SDS011;36472;52.170;20.884;2023-02-15T06:25:26;31.98;;;19.35;;
21274;SDS011;36472;52.170;20.884;2023-02-15T06:27:56;27.27;;;17.02;;
21274;SDS011;36472;52.170;20.884;2023-02-15T06:30:24;29.00;;;17.58;;
21274;SDS011;36472;52.170;20.884;2023-02-15T06:32:54;29.13;;;17.13;;
21274;SDS011;36472;52.170;20.884;2023-02-15T06:35:24;23.80;;;15.73;;
21274;SDS011;36472;52.170;20.884;2023-02-15T06:37:53;22.63;;;15.10;;
21274;SDS011;36472;52.170;20.884;2023-02-15T06:40:22;25.38;;;16.55;;
21274;SDS011;36472;52.170;20.884;2023-02-15T06:42:51;31.45;;;17.58;;
21274;SDS011;36472;52.170;20.884;2023-02-15T06:45:20;31.75;;;18.27;;
21274;SDS011;36472;52.170;20.884;2023-02-15T06:47:49;30.10;;;18.60;;
21274;SDS011;36472;52.170;20.884;2023-02-15T06:50:18;31.45;;;19.30;;
21274;SDS011;36472;52.170;20.884;2023-02-15T06:52:49;35.28;;;19.05;;
21274;SDS011;36472;52.170;20.884;2023-02-15T06:55:23;33.47;;;18.63;;
21274;SDS011;36472;52.170;20.884;2023-02-15T06:57:53;32.05;;;19.50;;
21274;SDS011;36472;52.170;20.884;2023-02-15T07:00:22;31.65;;;18.70;;
21274;SDS011;36472;52.170;20.884;2023-02-15T07:02:53;31.83;;;18.40;;
21274;SDS011;36472;52.170;20.884;2023-02-15T07:05:24;28.42;;;16.92;;
21274;SDS011;36472;52.170;20.884;2023-02-15T07:07:59;28.20;;;17.30;;
21274;SDS011;36472;52.170;20.884;2023-02-15T07:10:28;29.10;;;16.75;;
21274;SDS011;36472;52.170;20.884;2023-02-15T07:12:58;27.45;;;16.65;;
21274;SDS011;36472;52.170;20.884;2023-02-15T07:15:25;24.15;;;15.52;;
21274;SDS011;36472;52.170;20.884;2023-02-15T07:17:54;21.35;;;14.35;;
21274;SDS011;36472;52.170;20.884;2023-02-15T07:20:25;23.70;;;14.88;;
21274;SDS011;36472;52.170;20.884;2023-02-15T07:22:55;23.75;;;14.93;;
21274;SDS011;36472;52.170;20.884;2023-02-15T07:25:25;23.13;;;14.85;;
21274;SDS011;36472;52.170;20.884;2023-02-15T07:27:55;28.00;;;15.85;;
21274;SDS011;36472;52.170;20.884;2023-02-15T07:30:25;25.92;;;15.52;;
21274;SDS011;36472;52.170;20.884;2023-02-15T07:32:55;27.95;;;15.35;;
21274;SDS011;36472;52.170;20.884;2023-02-15T07:35:46;24.20;;;15.07;;
21274;SDS011;36472;52.170;20.884;2023-02-15T07:38:16;23.33;;;14.68;;
21274;SDS011;36472;52.170;20.884;2023-02-15T07:40:47;22.02;;;13.07;;
21274;SDS011;36472;52.170;20.884;2023-02-15T07:43:16;21.52;;;13.25;;
21274;SDS011;36472;52.170;20.884;2023-02-15T07:45:45;21.48;;;13.88;;
21274;SDS011;36472;52.170;20.884;2023-02-15T07:48:14;21.50;;;12.88;;
21274;SDS011;36472;52.170;20.884;2023-02-15T07:50:43;23.67;;;13.75;;
21274;SDS011;36472;52.170;20.884;2023-02-15T07:53:12;20.70;;;13.48;;
21274;SDS011;36472;52.170;20.884;2023-02-15T07:55:41;21.67;;;13.43;;
21274;SDS011;36472;52.170;20.884;2023-02-15T07:58:11;18.77;;;13.52;;
21274;SDS011;36472;52.170;20.884;2023-02-15T08:00:40;22.17;;;14.00;;
21274;SDS011;36472;52.170;20.884;2023-02-15T08:03:34;23.73;;;14.45;;
21274;SDS011;36472;52.170;20.884;2023-02-15T08:06:04;23.20;;;13.43;;
21274;SDS011;36472;52.170;20.884;2023-02-15T08:08:33;23.67;;;13.82;;
21274;SDS011;36472;52.170;20.884;2023-02-15T08:11:03;23.48;;;13.82;;
21274;SDS011;36472;52.170;20.884;2023-02-15T08:13:56;23.08;;;14.45;;
21274;SDS011;36472;52.170;20.884;2023-02-15T08:16:30;26.17;;;15.68;;
21274;SDS011;36472;52.170;20.884;2023-02-15T08:19:03;26.63;;;14.90;;
21274;SDS011;36472;52.170;20.884;2023-02-15T08:21:35;25.25;;;16.65;;
21274;SDS011;36472;52.170;20.884;2023-02-15T08:24:07;25.70;;;15.15;;
21274;SDS011;36472;52.170;20.884;2023-02-15T08:26:39;27.10;;;15.38;;
21274;SDS011;36472;52.170;20.884;2023-02-15T08:29:09;27.60;;;16.45;;
21274;SDS011;36472;52.170;20.884;2023-02-15T08:31:39;27.83;;;17.25;;
21274;SDS011;36472;52.170;20.884;2023-02-15T08:34:10;24.45;;;14.65;;
21274;SDS011;36472;52.170;20.884;2023-02-15T08:36:43;21.33;;;13.38;;
21274;SDS011;36472;52.170;20.884;2023-02-15T08:39:13;23.77;;;13.85;;
21274;SDS011;36472;52.170;20.884;2023-02-15T08:41:44;26.95;;;14.15;;
21274;SDS011;36472;52.170;20.884;2023-02-15T08:44:15;25.17;;;14.15;;
21274;SDS011;36472;52.170;20.884;2023-02-15T08:46:46;22.42;;;13.07;;
21274;SDS011;36472;52.170;20.884;2023-02-15T08:49:19;25.48;;;15.13;;
21274;SDS011;36472;52.170;20.884;2023-02-15T08:51:49;23.35;;;14.15;;
21274;SDS011;36472;52.170;20.884;2023-02-15T08:54:19;23.98;;;13.60;;
21274;SDS011;36472;52.170;20.884;2023-02-15T08:56:49;24.95;;;15.13;;
21274;SDS011;36472;52.170;20.884;2023-02-15T08:59:19;23.55;;;13.45;;
21274;SDS011;36472;52.170;20.884;2023-02-15T09:01:50;24.98;;;14.52;;
21274;SDS011;36472;52.170;20.884;2023-02-15T09:04:21;27.48;;;14.13;;
21274;SDS011;36472;52.170;20.884;2023-02-15T09:06:51;24.77;;;14.57;;
21274;SDS011;36472;52.170;20.884;2023-02-15T09:09:20;23.70;;;14.50;;
21274;SDS011;36472;52.170;20.884;2023-02-15T09:11:50;25.60;;;14.55;;
21274;SDS011;36472;52.170;20.884;2023-02-15T09:14:25;24.88;;;13.93;;
21274;SDS011;36472;52.170;20.884;2023-02-15T09:16:55;26.98;;;14.70;;
21274;SDS011;36472;52.170;20.884;2023-02-15T09:19:26;27.25;;;16.55;;
21274;SDS011;36472;52.170;20.884;2023-02-15T09:21:55;29.23;;;17.13;;
21274;SDS011;36472;52.170;20.884;2023-02-15T09:24:25;39.38;;;21.27;;
21274;SDS011;36472;52.170;20.884;2023-02-15T09:26:54;32.53;;;17.80;;
21274;SDS011;36472;52.170;20.884;2023-02-15T09:29:23;32.65;;;19.20;;
21274;SDS011;36472;52.170;20.884;2023-02-15T09:31:52;28.77;;;16.80;;
21274;SDS011;36472;52.170;20.884;2023-02-15T09:34:21;29.08;;;17.95;;
21274;SDS011;36472;52.170;20.884;2023-02-15T09:36:53;27.80;;;16.52;;
21274;SDS011;36472;52.170;20.884;2023-02-15T09:39:22;46.10;;;25.55;;
21274;SDS011;36472;52.170;20.884;2023-02-15T09:45:14;37.53;;;20.95;;
21274;SDS011;36472;52.170;20.884;2023-02-15T09:48:01;27.80;;;16.30;;
21274;SDS011;36472;52.170;20.884;2023-02-15T09:50:56;26.13;;;14.82;;
21274;SDS011;36472;52.170;20.884;2023-02-15T09:53:51;23.40;;;14.43;;
21274;SDS011;36472;52.170;20.884;2023-02-15T09:56:49;28.35;;;16.48;;
21274;SDS011;36472;52.170;20.884;2023-02-15T09:59:27;25.50;;;14.50;;
21274;SDS011;36472;52.170;20.884;2023-02-15T10:02:14;20.60;;;12.77;;
21274;SDS011;36472;52.170;20.884;2023-02-15T10:05:01;20.15;;;11.82;;
21274;SDS011;36472;52.170;20.884;2023-02-15T10:07:54;22.20;;;13.52;;
21274;SDS011;36472;52.170;20.884;2023-02-15T10:10:51;24.10;;;13.45;;
21274;SDS011;36472;52.170;20.884;2023-02-15T10:13:52;21.92;;;12.68;;
21274;SDS011;36472;52.170;20.884;2023-02-15T10:16:40;26.75;;;14.82;;
21274;SDS011;36472;52.170;20.884;2023-02-15T10:19:26;24.70;;;14.00;;
21274;SDS011;36472;52.170;20.884;2023-02-15T10:22:14;22.48;;;14.05;;
21274;SDS011;36472;52.170;20.884;2023-02-15T10:25:01;23.45;;;13.82;;
21274;SDS011;36472;52.170;20.884;2023-02-15T10:27:49;24.88;;;14.02;;
21274;SDS011;36472;52.170;20.884;2023-02-15T10:30:19;23.90;;;14.23;;
21274;SDS011;36472;52.170;20.884;2023-02-15T10:33:01;25.85;;;14.55;;
21274;SDS011;36472;52.170;20.884;2023-02-15T10:35:40;24.02;;;13.40;;
21274;SDS011;36472;52.170;20.884;2023-02-15T10:38:21;19.77;;;12.50;;
21274;SDS011;36472;52.170;20.884;2023-02-15T10:41:07;23.90;;;14.57;;
21274;SDS011;36472;52.170;20.884;2023-02-15T10:43:58;24.15;;;15.20;;
21274;SDS011;36472;52.170;20.884;2023-02-15T10:46:54;25.60;;;14.85;;
21274;SDS011;36472;52.170;20.884;2023-02-15T10:49:51;23.13;;;14.25;;
21274;SDS011;36472;52.170;20.884;2023-02-15T10:52:48;23.48;;;13.82;;
21274;SDS011;36472;52.170;20.884;2023-02-15T10:55:41;22.50;;;13.75;;
21274;SDS011;36472;52.170;20.884;2023-02-15T10:58:27;21.13;;;13.07;;
21274;SDS011;36472;52.170;20.884;2023-02-15T11:01:18;21.75;;;13.27;;
21274;SDS011;36472;52.170;20.884;2023-02-15T11:07:08;26.27;;;15.55;;
21274;SDS011;36472;52.170;20.884;2023-02-15T11:09:47;26.92;;;15.40;;
21274;SDS011;36472;52.170;20.884;2023-02-15T11:12:24;26.05;;;16.90;;
21274;SDS011;36472;52.170;20.884;2023-02-15T11:14:57;25.85;;;16.25;;
21274;SDS011;36472;52.170;20.884;2023-02-15T11:17:35;23.85;;;15.93;;
21274;SDS011;36472;52.170;20.884;2023-02-15T11:20:15;23.92;;;15.25;;
21274;SDS011;36472;52.170;20.884;2023-02-15T11:22:52;30.65;;;17.65;;
21274;SDS011;36472;52.170;20.884;2023-02-15T11:25:24;31.33;;;17.10;;
21274;SDS011;36472;52.170;20.884;2023-02-15T11:27:58;32.13;;;18.70;;
21274;SDS011;36472;52.170;20.884;2023-02-15T11:30:35;37.33;;;21.73;;
21274;SDS011;36472;52.170;20.884;2023-02-15T11:33:16;33.20;;;20.15;;
21274;SDS011;36472;52.170;20.884;2023-02-15T11:35:52;33.60;;;19.88;;
21274;SDS011;36472;52.170;20.884;2023-02-15T11:38:29;29.80;;;19.15;;
21274;SDS011;36472;52.170;20.884;2023-02-15T11:41:01;34.40;;;18.55;;
21274;SDS011;36472;52.170;20.884;2023-02-15T11:43:38;45.88;;;25.30;;
21274;SDS011;36472;52.170;20.884;2023-02-15T11:46:15;35.88;;;21.30;;
21274;SDS011;36472;52.170;20.884;2023-02-15T11:48:47;44.92;;;26.58;;
21274;SDS011;36472;52.170;20.884;2023-02-15T11:51:17;41.80;;;24.35;;
21274;SDS011;36472;52.170;20.884;2023-02-15T11:53:50;36.63;;;22.67;;
21274;SDS011;36472;52.170;20.884;2023-02-15T11:56:21;38.92;;;22.58;;
21274;SDS011;36472;52.170;20.884;2023-02-15T11:58:54;50.38;;;25.75;;
21274;SDS011;36472;52.170;20.884;2023-02-15T12:01:30;44.90;;;24.70;;
21274;SDS011;36472;52.170;20.884;2023-02-15T12:04:06;42.80;;;23.50;;
21274;SDS011;36472;52.170;20.884;2023-02-15T12:06:46;39.03;;;21.73;;
21274;SDS011;36472;52.170;20.884;2023-02-15T12:09:29;39.63;;;22.77;;
21274;SDS011;36472;52.170;20.884;2023-02-15T12:12:20;44.53;;;23.08;;
21274;SDS011;36472;52.170;20.884;2023-02-15T12:14:53;40.13;;;23.38;;
21274;SDS011;36472;52.170;20.884;2023-02-15T12:17:24;40.60;;;23.42;;
21274;SDS011;36472;52.170;20.884;2023-02-15T12:19:59;42.30;;;22.65;;
21274;SDS011;36472;52.170;20.884;2023-02-15T12:22:32;37.60;;;22.45;;
21274;SDS011;36472;52.170;20.884;2023-02-15T12:25:04;35.58;;;20.58;;
21274;SDS011;36472;52.170;20.884;2023-02-15T12:27:52;37.15;;;20.90;;
21274;SDS011;36472;52.170;20.884;2023-02-15T12:30:23;35.28;;;20.15;;
21274;SDS011;36472;52.170;20.884;2023-02-15T12:33:03;31.27;;;19.88;;
21274;SDS011;36472;52.170;20.884;2023-02-15T12:35:46;34.88;;;20.35;;
21274;SDS011;36472;52.170;20.884;2023-02-15T12:38:23;33.35;;;18.75;;
21274;SDS011;36472;52.170;20.884;2023-02-15T12:40:59;36.45;;;21.58;;
21274;SDS011;36472;52.170;20.884;2023-02-15T12:43:32;35.28;;;20.88;;
21274;SDS011;36472;52.170;20.884;2023-02-15T12:46:13;36.65;;;21.70;;
21274;SDS011;36472;52.170;20.884;2023-02-15T12:51:44;40.65;;;23.85;;
21274;SDS011;36472;52.170;20.884;2023-02-15T12:54:25;39.85;;;22.75;;
21274;SDS011;36472;52.170;20.884;2023-02-15T12:57:13;41.17;;;24.15;;
21274;SDS011;36472;52.170;20.884;2023-02-15T12:59:52;40.88;;;23.70;;
21274;SDS011;36472;52.170;20.884;2023-02-15T13:02:25;43.30;;;24.30;;
21274;SDS011;36472;52.170;20.884;2023-02-15T13:05:04;44.28;;;23.38;;
21274;SDS011;36472;52.170;20.884;2023-02-15T13:07:47;45.15;;;24.75;;
21274;SDS011;36472;52.170;20.884;2023-02-15T13:10:22;44.28;;;23.20;;
21274;SDS011;36472;52.170;20.884;2023-02-15T13:12:56;40.58;;;21.63;;
21274;SDS011;36472;52.170;20.884;2023-02-15T13:15:27;37.90;;;21.17;;
21274;SDS011;36472;52.170;20.884;2023-02-15T13:18:04;37.10;;;20.13;;
21274;SDS011;36472;52.170;20.884;2023-02-15T13:20:42;43.92;;;24.13;;
21274;SDS011;36472;52.170;20.884;2023-02-15T13:23:19;40.40;;;22.38;;
21274;SDS011;36472;52.170;20.884;2023-02-15T13:25:58;39.50;;;23.40;;
21274;SDS011;36472;52.170;20.884;2023-02-15T13:28:35;41.60;;;22.55;;
21274;SDS011;36472;52.170;20.884;2023-02-15T13:31:12;46.47;;;24.92;;
21274;SDS011;36472;52.170;20.884;2023-02-15T13:33:44;44.63;;;23.90;;
21274;SDS011;36472;52.170;20.884;2023-02-15T13:36:21;46.30;;;25.05;;
21274;SDS011;36472;52.170;20.884;2023-02-15T13:39:07;43.33;;;25.15;;
21274;SDS011;36472;52.170;20.884;2023-02-15T13:41:50;40.55;;;23.77;;
21274;SDS011;36472;52.170;20.884;2023-02-15T13:44:37;45.10;;;25.35;;
21274;SDS011;36472;52.170;20.884;2023-02-15T13:47:40;62.28;;;35.90;;
21274;SDS011;36472;52.170;20.884;2023-02-15T13:53:43;47.90;;;28.00;;
21274;SDS011;36472;52.170;20.884;2023-02-15T13:56:44;39.78;;;22.38;;
21274;SDS011;36472;52.170;20.884;2023-02-15T13:59:32;39.65;;;24.27;;
21274;SDS011;36472;52.170;20.884;2023-02-15T14:02:30;44.83;;;24.00;;
21274;SDS011;36472;52.170;20.884;2023-02-15T14:05:31;49.53;;;26.63;;
21274;SDS011;36472;52.170;20.884;2023-02-15T14:08:18;45.95;;;25.92;;
21274;SDS011;36472;52.170;20.884;2023-02-15T14:11:06;49.85;;;27.48;;
21274;SDS011;36472;52.170;20.884;2023-02-15T14:13:52;49.38;;;26.55;;
21274;SDS011;36472;52.170;20.884;2023-02-15T14:16:58;48.40;;;26.17;;
21274;SDS011;36472;52.170;20.884;2023-02-15T14:19:39;48.88;;;25.80;;
21274;SDS011;36472;52.170;20.884;2023-02-15T14:22:18;46.63;;;24.60;;
21274;SDS011;36472;52.170;20.884;2023-02-15T14:25:02;44.97;;;25.48;;
21274;SDS011;36472;52.170;20.884;2023-02-15T14:27:50;47.25;;;26.27;;
21274;SDS011;36472;52.170;20.884;2023-02-15T14:30:29;47.25;;;25.77;;
21274;SDS011;36472;52.170;20.884;2023-02-15T14:33:04;42.88;;;24.63;;
21274;SDS011;36472;52.170;20.884;2023-02-15T14:35:36;50.33;;;28.48;;
21274;SDS011;36472;52.170;20.884;2023-02-15T14:38:11;51.55;;;26.95;;
21274;SDS011;36472;52.170;20.884;2023-02-15T14:41:04;54.08;;;27.63;;
21274;SDS011;36472;52.170;20.884;2023-02-15T14:43:44;50.63;;;26.75;;
21274;SDS011;36472;52.170;20.884;2023-02-15T14:46:29;53.25;;;26.95;;
21274;SDS011;36472;52.170;20.884;2023-02-15T14:49:05;51.78;;;26.58;;
21274;SDS011;36472;52.170;20.884;2023-02-15T14:54:52;46.55;;;26.75;;
21274;SDS011;36472;52.170;20.884;2023-02-15T14:57:32;52.78;;;27.52;;
21274;SDS011;36472;52.170;20.884;2023-02-15T15:03:17;48.47;;;26.88;;
21274;SDS011;36472;52.170;20.884;2023-02-15T15:05:52;48.67;;;25.73;;
21274;SDS011;36472;52.170;20.884;2023-02-15T15:08:34;43.70;;;23.08;;
21274;SDS011;36472;52.170;20.884;2023-02-15T15:14:13;36.47;;;19.98;;
21274;SDS011;36472;52.170;20.884;2023-02-15T15:17:12;37.38;;;19.05;;
21274;SDS011;36472;52.170;20.884;2023-02-15T15:26:20;35.85;;;19.33;;
21274;SDS011;36472;52.170;20.884;2023-02-15T15:29:00;37.35;;;20.52;;
21274;SDS011;36472;52.170;20.884;2023-02-15T15:31:33;35.03;;;19.85;;
21274;SDS011;36472;52.170;20.884;2023-02-15T15:34:38;36.50;;;19.33;;